^^
Station Historical Data
Daily Summary for May 12, 2017 Units:  English    Metric   Both
« Previous Day
Next Day »
Daily Weekly Monthly Yearly Custom
  High: Low: Average:
Temperature: 60.4 °F 46.5 °F 53.7 °F
Dew Point: 46.0 °F 41.4 °F 44.2 °F
Humidity: 89 % 57 % 71 %
Wind Speed: 5.2 mph 0.0 mph 0.4 mph
Wind Gust: 11.5 mph - -
Wind:- - SSE
Pressure: 30.08 in 29.98 in -
Precipitation: 0.01 in    
Historical Graphs
 
 
Tabular Data for May 12, 2017
Time Temperature Dew Point Pressure Wind Wind Speed Wind Gust Humidity Rainfall Rate (Hourly) solar Conditions
00:03 49.4 °F 46.0 °F 30.03 in Calm     88 % 0.00 in 0.0 W/m2 CLR
00:08 49.3 °F 45.9 °F 30.03 in Calm     88 % 0.00 in 0.0 W/m2 CLR
00:13 49.3 °F 45.9 °F 30.03 in Calm     88 % 0.00 in 0.0 W/m2 CLR
00:18 49.4 °F 46.0 °F 30.03 in Calm     88 % 0.00 in 0.0 W/m2 CLR
00:23 49.3 °F 45.9 °F 30.03 in Calm     88 % 0.00 in 0.0 W/m2 CLR
00:28 49.2 °F 45.8 °F 30.03 in Calm     88 % 0.00 in 0.0 W/m2 CLR
00:33 49.1 °F 45.7 °F 30.03 in Calm     88 % 0.00 in 0.0 W/m2 CLR
00:38 49.0 °F 45.6 °F 30.03 in Calm     88 % 0.00 in 0.0 W/m2 CLR
00:43 48.9 °F 45.2 °F 30.03 in Calm     87 % 0.00 in 0.0 W/m2 CLR
00:48 48.9 °F 45.2 °F 30.03 in Calm     87 % 0.00 in 0.0 W/m2 CLR
00:53 49.0 °F 45.0 °F 30.03 in Calm     86 % 0.00 in 0.0 W/m2 CLR
00:58 49.2 °F 45.2 °F 30.03 in Calm     86 % 0.00 in 0.0 W/m2 CLR
01:03 49.1 °F 45.1 °F 30.02 in Calm     86 % 0.00 in 0.0 W/m2 CLR
01:08 49.3 °F 45.0 °F 30.03 in Calm     85 % 0.00 in 0.0 W/m2 CLR
01:13 49.4 °F 45.1 °F 30.02 in Calm     85 % 0.00 in 0.0 W/m2 CLR
01:18 49.4 °F 45.1 °F 30.03 in Calm     85 % 0.00 in 0.0 W/m2 CLR
01:23 49.5 °F 45.2 °F 30.03 in Calm     85 % 0.00 in 0.0 W/m2 CLR
01:28 49.5 °F 45.2 °F 30.03 in Calm     85 % 0.00 in 0.0 W/m2 CLR
01:33 49.3 °F 45.0 °F 30.03 in Calm     85 % 0.00 in 0.0 W/m2 CLR
01:38 49.1 °F 45.1 °F 30.03 in Calm     86 % 0.00 in 0.0 W/m2 CLR
01:43 49.1 °F 44.8 °F 30.03 in Calm     85 % 0.00 in 0.0 W/m2 CLR
01:48 49.0 °F 44.7 °F 30.03 in Calm     85 % 0.00 in 0.0 W/m2 CLR
01:53 49.0 °F 44.7 °F 30.03 in Calm     85 % 0.00 in 0.0 W/m2 CLR
01:58 49.1 °F 44.8 °F 30.03 in Calm     85 % 0.00 in 0.0 W/m2 CLR
02:03 49.2 °F 44.9 °F 30.03 in Calm     85 % 0.00 in 0.0 W/m2 CLR
02:08 49.1 °F 45.1 °F 30.03 in Calm     86 % 0.00 in 0.0 W/m2 CLR
02:13 49.1 °F 45.1 °F 30.03 in Calm     86 % 0.00 in 0.0 W/m2 CLR
02:19 49.0 °F 45.0 °F 30.03 in Calm     86 % 0.00 in 0.0 W/m2 CLR
02:24 48.9 °F 44.9 °F 30.02 in Calm     86 % 0.00 in 0.0 W/m2 CLR
02:29 48.7 °F 44.4 °F 30.03 in Calm     85 % 0.00 in 0.0 W/m2 CLR
02:34 48.6 °F 44.3 °F 30.03 in Calm     85 % 0.00 in 0.0 W/m2 CLR
02:39 48.7 °F 44.4 °F 30.03 in Calm     85 % 0.00 in 0.0 W/m2 CLR
02:44 48.6 °F 44.3 °F 30.03 in Calm     85 % 0.00 in 0.0 W/m2 CLR
02:49 48.5 °F 44.2 °F 30.03 in Calm     85 % 0.00 in 0.0 W/m2 CLR
02:54 48.7 °F 44.4 °F 30.03 in Calm     85 % 0.00 in 0.0 W/m2 CLR
02:59 48.8 °F 44.5 °F 30.03 in Calm     85 % 0.00 in 0.0 W/m2 CLR
03:04 48.8 °F 44.5 °F 30.03 in Calm     85 % 0.00 in 0.0 W/m2 CLR
03:09 48.7 °F 44.4 °F 30.03 in Calm     85 % 0.00 in 0.0 W/m2 CLR
03:14 48.6 °F 44.3 °F 30.03 in Calm     85 % 0.00 in 0.0 W/m2 CLR
03:19 48.7 °F 44.4 °F 30.03 in Calm     85 % 0.00 in 0.0 W/m2 CLR
03:24 48.7 °F 44.4 °F 30.03 in Calm     85 % 0.00 in 0.0 W/m2 CLR
03:29 48.7 °F 44.4 °F 30.02 in Calm     85 % 0.00 in 0.0 W/m2 CLR
03:34 48.6 °F 44.3 °F 30.03 in Calm     85 % 0.00 in 0.0 W/m2 CLR
03:39 48.5 °F 44.2 °F 30.03 in Calm     85 % 0.00 in 0.0 W/m2 CLR
03:44 48.4 °F 44.1 °F 30.03 in Calm     85 % 0.00 in 0.0 W/m2 CLR
03:49 48.3 °F 44.3 °F 30.02 in Calm     86 % 0.00 in 0.0 W/m2 CLR
03:54 48.1 °F 43.8 °F 30.02 in Calm     85 % 0.00 in 0.0 W/m2 CLR
03:59 48.1 °F 44.1 °F 30.03 in Calm     86 % 0.00 in 0.0 W/m2 CLR
04:04 48.1 °F 44.1 °F 30.03 in Calm     86 % 0.00 in 0.0 W/m2 FEW
04:09 48.1 °F 44.1 °F 30.03 in Calm     86 % 0.00 in 0.0 W/m2 FEW
04:14 47.7 °F 43.7 °F 30.03 in Calm     86 % 0.00 in 0.0 W/m2 FEW
04:19 47.4 °F 43.7 °F 30.03 in Calm     87 % 0.00 in 0.0 W/m2 FEW
04:24 47.2 °F 43.5 °F 30.03 in Calm     87 % 0.00 in 0.0 W/m2 FEW
04:29 47.2 °F 43.5 °F 30.03 in Calm     87 % 0.00 in 0.0 W/m2 FEW
04:34 47.1 °F 43.7 °F 30.04 in Calm     88 % 0.00 in 0.0 W/m2 FEW
04:39 47.0 °F 43.6 °F 30.03 in Calm     88 % 0.00 in 0.0 W/m2 FEW
04:44 46.8 °F 43.4 °F 30.03 in Calm     88 % 0.00 in 0.0 W/m2 FEW
04:49 46.7 °F 43.6 °F 30.03 in Calm     89 % 0.00 in 0.0 W/m2 FEW
04:54 46.5 °F 43.4 °F 30.03 in Calm     89 % 0.00 in 0.0 W/m2 FEW
04:59 46.5 °F 43.4 °F 30.02 in Calm     89 % 0.00 in 0.0 W/m2 FEW
05:04 46.5 °F 43.4 °F 30.03 in Calm     89 % 0.00 in 0.0 W/m2 CLR
05:09 46.6 °F 43.5 °F 30.03 in Calm     89 % 0.00 in 0.0 W/m2 CLR
05:14 46.6 °F 43.5 °F 30.03 in Calm     89 % 0.00 in 0.0 W/m2 CLR
05:19 46.6 °F 43.5 °F 30.04 in Calm     89 % 0.00 in 0.0 W/m2 CLR
05:24 46.6 °F 43.2 °F 30.04 in Calm     88 % 0.00 in 0.0 W/m2 CLR
05:29 46.7 °F 43.3 °F 30.05 in Calm     88 % 0.00 in 0.0 W/m2 CLR
05:34 46.7 °F 43.3 °F 30.05 in Calm     88 % 0.00 in 0.0 W/m2 CLR
05:39 46.7 °F 43.0 °F 30.04 in Calm     87 % 0.00 in 0.0 W/m2 CLR
05:45 46.7 °F 43.0 °F 30.04 in Calm     87 % 0.00 in 0.0 W/m2 CLR
05:50 46.8 °F 42.8 °F 30.04 in Calm     86 % 0.00 in 0.0 W/m2 CLR
05:55 47.0 °F 42.7 °F 30.04 in Calm     85 % 0.00 in 0.0 W/m2 CLR
06:00 47.1 °F 42.8 °F 30.05 in Calm     85 % 0.00 in 9.0 W/m2 CLR
06:05 47.2 °F 43.0 °F 30.05 in Calm     85 % 0.00 in 14.0 W/m2 CLR
06:10 47.6 °F 43.3 °F 30.05 in Calm     85 % 0.00 in 21.0 W/m2 CLR
06:15 47.2 °F 42.6 °F 30.05 in Calm     84 % 0.00 in 28.0 W/m2 CLR
06:20 47.2 °F 42.3 °F 30.05 in Calm     83 % 0.00 in 30.0 W/m2 CLR
06:25 47.4 °F 42.2 °F 30.05 in Calm     82 % 0.00 in 33.0 W/m2 CLR
06:30 47.6 °F 42.1 °F 30.05 in Calm     81 % 0.00 in 42.0 W/m2 CLR
06:34 47.7 °F 41.8 °F 30.06 in Calm     80 % 0.00 in 37.0 W/m2 CLR
06:40 47.7 °F 41.8 °F 30.06 in Calm   1.0 mph 80 % 0.00 in 21.0 W/m2 CLR
06:45 47.6 °F 41.4 °F 30.07 in Calm   1.2 mph 79 % 0.00 in 23.0 W/m2 CLR
06:50 47.6 °F 41.8 °F 30.07 in Calm     80 % 0.00 in 37.0 W/m2 CLR
06:55 47.8 °F 41.9 °F 30.07 in Calm     80 % 0.00 in 63.0 W/m2 CLR
07:00 48.0 °F 42.1 °F 30.07 in Calm     80 % 0.00 in 70.0 W/m2 CLR
07:05 48.2 °F 42.3 °F 30.07 in Calm     80 % 0.00 in 76.0 W/m2 FEW
07:10 48.4 °F 42.5 °F 30.07 in Calm   1.2 mph 80 % 0.00 in 86.0 W/m2 FEW
07:15 48.5 °F 42.3 °F 30.07 in Calm   1.2 mph 79 % 0.00 in 93.0 W/m2 FEW
07:20 48.6 °F 42.4 °F 30.07 in Calm   1.2 mph 79 % 0.00 in 100.0 W/m2 FEW
07:25 48.8 °F 42.6 °F 30.06 in ENE 0.4 mph 2.3 mph 79 % 0.00 in 105.0 W/m2 FEW
07:30 48.9 °F 42.7 °F 30.07 in Calm   2.3 mph 79 % 0.00 in 114.0 W/m2 FEW
07:35 48.8 °F 42.6 °F 30.07 in Calm   2.3 mph 79 % 0.00 in 113.0 W/m2 FEW
07:40 48.9 °F 42.7 °F 30.07 in Calm   1.2 mph 79 % 0.00 in 111.0 W/m2 FEW
07:45 49.0 °F 42.8 °F 30.07 in Calm   3.5 mph 79 % 0.00 in 120.0 W/m2 FEW
07:50 49.3 °F 43.1 °F 30.07 in Calm   3.5 mph 79 % 0.00 in 142.0 W/m2 FEW
07:55 49.5 °F 43.3 °F 30.07 in ENE 0.1 mph 2.3 mph 79 % 0.00 in 156.0 W/m2 FEW
08:00 50.1 °F 43.5 °F 30.08 in Calm   2.3 mph 78 % 0.00 in 156.0 W/m2 FEW
08:05 50.1 °F 43.2 °F 30.07 in Calm   2.3 mph 77 % 0.00 in 153.0 W/m2 CLR
08:10 50.3 °F 43.4 °F 30.08 in Calm   2.3 mph 77 % 0.00 in 148.0 W/m2 CLR
08:15 50.1 °F 42.8 °F 30.08 in East 0.5 mph 3.5 mph 76 % 0.00 in 167.0 W/m2 CLR
08:20 50.4 °F 43.5 °F 30.08 in SE 0.1 mph 3.5 mph 77 % 0.00 in 171.0 W/m2 CLR
08:25 50.8 °F 43.5 °F 30.08 in Calm   3.5 mph 76 % 0.00 in 193.0 W/m2 CLR
08:30 51.1 °F 43.4 °F 30.08 in SE 0.5 mph 2.3 mph 75 % 0.00 in 204.0 W/m2 CLR
08:35 51.2 °F 43.2 °F 30.08 in South 1.7 mph 3.5 mph 74 % 0.00 in 221.0 W/m2 CLR
08:40 51.7 °F 44.0 °F 30.07 in South 0.1 mph 3.5 mph 75 % 0.00 in 244.0 W/m2 CLR
08:45 52.0 °F 44.0 °F 30.07 in South 0.9 mph 3.5 mph 74 % 0.00 in 265.0 W/m2 CLR
08:50 52.2 °F 43.8 °F 30.07 in SSE 0.7 mph 3.5 mph 73 % 0.00 in 369.0 W/m2 CLR
08:55 52.4 °F 44.0 °F 30.07 in SE 0.3 mph 3.5 mph 73 % 0.00 in 684.0 W/m2 CLR
09:00 52.7 °F 43.6 °F 30.07 in Calm   3.5 mph 71 % 0.00 in 323.0 W/m2 CLR
09:05 52.3 °F 43.9 °F 30.07 in East 1.1 mph 3.5 mph 73 % 0.00 in 452.0 W/m2 CLR
09:10 52.6 °F 43.8 °F 30.07 in Calm   3.5 mph 72 % 0.00 in 527.0 W/m2 CLR
09:15 53.7 °F 45.2 °F 30.07 in NNE 1.2 mph 6.9 mph 73 % 0.00 in 584.0 W/m2 CLR
09:20 54.2 °F 44.6 °F 30.07 in East 0.7 mph 6.9 mph 70 % 0.00 in 394.0 W/m2 CLR
09:25 53.4 °F 43.9 °F 30.07 in Calm   3.5 mph 70 % 0.00 in 295.0 W/m2 CLR
09:30 53.4 °F 44.6 °F 30.06 in Calm   3.5 mph 72 % 0.00 in 315.0 W/m2 CLR
09:35 53.4 °F 43.9 °F 30.06 in SSE 1.0 mph 3.5 mph 70 % 0.00 in 336.0 W/m2 CLR
09:40 53.4 °F 43.9 °F 30.06 in Calm   3.5 mph 70 % 0.00 in 352.0 W/m2 CLR
09:45 53.4 °F 43.5 °F 30.06 in SSW 1.5 mph 3.5 mph 69 % 0.00 in 357.0 W/m2 CLR
09:50 53.9 °F 44.0 °F 30.06 in Calm   3.5 mph 69 % 0.00 in 232.0 W/m2 CLR
09:55 54.0 °F 44.1 °F 30.06 in Calm   4.6 mph 69 % 0.00 in 195.0 W/m2 CLR
10:00 54.1 °F 44.2 °F 30.06 in Calm   4.6 mph 69 % 0.00 in 306.0 W/m2 CLR
10:05 54.3 °F 44.0 °F 30.06 in SSW 1.9 mph 4.6 mph 68 % 0.00 in 353.0 W/m2 OVC
10:10 55.1 °F 44.3 °F 30.06 in SSW 0.7 mph 4.6 mph 67 % 0.00 in 675.0 W/m2 OVC
10:15 55.2 °F 44.0 °F 30.06 in Calm   4.6 mph 66 % 0.00 in 357.0 W/m2 OVC
10:20 55.7 °F 44.5 °F 30.06 in NNW 1.1 mph 2.3 mph 66 % 0.00 in 589.0 W/m2 OVC
10:25 55.4 °F 44.2 °F 30.06 in NNW 1.6 mph 3.5 mph 66 % 0.00 in 656.0 W/m2 OVC
10:30 55.7 °F 44.5 °F 30.06 in NNW 0.3 mph 3.5 mph 66 % 0.00 in 775.0 W/m2 OVC
10:35 56.1 °F 44.5 °F 30.05 in NNW 0.1 mph 3.5 mph 65 % 0.00 in 499.0 W/m2 OVC
10:40 57.0 °F 45.3 °F 30.05 in Calm   3.5 mph 65 % 0.00 in 512.0 W/m2 OVC
10:46 57.1 °F 43.8 °F 30.05 in SSE 2.1 mph 3.5 mph 61 % 0.00 in 545.0 W/m2 OVC
10:51 57.2 °F 43.0 °F 30.05 in SSW 1.9 mph 3.5 mph 59 % 0.00 in 417.0 W/m2 OVC
10:56 56.7 °F 43.0 °F 30.05 in Calm   3.5 mph 60 % 0.00 in 422.0 W/m2 OVC
11:01 56.8 °F 43.9 °F 30.05 in Calm   3.5 mph 62 % 0.00 in 506.0 W/m2 OVC
11:06 57.3 °F 43.1 °F 30.05 in SSE 0.5 mph 3.5 mph 59 % 0.00 in 471.0 W/m2 OVC
11:11 57.3 °F 43.1 °F 30.05 in South 0.9 mph 6.9 mph 59 % 0.00 in 513.0 W/m2 OVC
11:16 57.5 °F 43.3 °F 30.05 in SE 1.0 mph 6.9 mph 59 % 0.00 in 684.0 W/m2 OVC
11:21 57.6 °F 43.4 °F 30.05 in SSE 0.3 mph 4.6 mph 59 % 0.00 in 610.0 W/m2 OVC
11:26 58.1 °F 44.3 °F 30.05 in SE 0.7 mph 4.6 mph 60 % 0.00 in 513.0 W/m2 OVC
11:31 58.1 °F 43.4 °F 30.05 in Calm   4.6 mph 58 % 0.00 in 473.0 W/m2 OVC
11:36 57.9 °F 43.7 °F 30.05 in South 1.6 mph 4.6 mph 59 % 0.00 in 513.0 W/m2 OVC
11:41 57.7 °F 43.5 °F 30.05 in Calm   3.5 mph 59 % 0.00 in 441.0 W/m2 OVC
11:46 57.7 °F 43.9 °F 30.05 in ESE 2.5 mph 3.5 mph 60 % 0.00 in 443.0 W/m2 OVC
11:51 57.6 °F 43.4 °F 30.05 in SE 0.3 mph 3.5 mph 59 % 0.00 in 439.0 W/m2 OVC
11:56 57.4 °F 43.6 °F 30.05 in South 1.2 mph 4.6 mph 60 % 0.00 in 401.0 W/m2 OVC
12:01 57.6 °F 43.4 °F 30.05 in South 0.6 mph 4.6 mph 59 % 0.00 in 269.0 W/m2 OVC
12:06 57.4 °F 43.2 °F 30.05 in South 3.2 mph 3.5 mph 59 % 0.00 in 258.0 W/m2 OVC
12:11 57.7 °F 43.5 °F 30.05 in South 4.8 mph 8.1 mph 59 % 0.00 in 244.0 W/m2 OVC
12:16 57.6 °F 43.4 °F 30.04 in South 2.4 mph 8.1 mph 59 % 0.00 in 257.0 W/m2 OVC
12:21 57.8 °F 43.6 °F 30.04 in South 2.1 mph 8.1 mph 59 % 0.00 in 348.0 W/m2 OVC
12:26 58.2 °F 44.8 °F 30.04 in South 2.4 mph 6.9 mph 61 % 0.00 in 394.0 W/m2 OVC
12:31 58.0 °F 43.7 °F 30.04 in South 1.0 mph 6.9 mph 59 % 0.00 in 302.0 W/m2 OVC
12:36 57.9 °F 43.7 °F 30.04 in NE 0.9 mph 4.6 mph 59 % 0.00 in 260.0 W/m2 OVC
12:41 57.6 °F 43.8 °F 30.04 in Calm   3.5 mph 60 % 0.00 in 336.0 W/m2 OVC
12:46 58.2 °F 43.5 °F 30.04 in SSW 3.8 mph 5.8 mph 58 % 0.00 in 429.0 W/m2 OVC
12:51 58.5 °F 43.8 °F 30.03 in Calm   5.8 mph 58 % 0.00 in 357.0 W/m2 OVC
12:56 58.3 °F 44.0 °F 30.04 in Calm   5.8 mph 59 % 0.00 in 272.0 W/m2 OVC
13:01 58.2 °F 43.9 °F 30.03 in Calm   3.5 mph 59 % 0.00 in 299.0 W/m2 OVC
13:06 58.6 °F 44.3 °F 30.03 in Calm   3.5 mph 59 % 0.00 in 367.0 W/m2 OVC
13:11 58.7 °F 44.8 °F 30.03 in ESE 0.8 mph 3.5 mph 60 % 0.00 in 450.0 W/m2 OVC
13:17 58.5 °F 44.7 °F 30.03 in East 0.3 mph 3.5 mph 60 % 0.00 in 410.0 W/m2 OVC
13:19 58.7 °F 44.8 °F 30.03 in East 0.1 mph 3.5 mph 60 % 0.00 in 446.0 W/m2 OVC
13:24 58.9 °F 45.9 °F 30.03 in SSE 0.2 mph 3.5 mph 62 % 0.00 in 496.0 W/m2 OVC
13:29 59.1 °F 45.7 °F 30.03 in SE 0.7 mph 3.5 mph 61 % 0.00 in 448.0 W/m2 OVC
13:34 59.1 °F 45.2 °F 30.03 in South 0.3 mph 4.6 mph 60 % 0.00 in 439.0 W/m2 OVC
13:39 58.7 °F 44.8 °F 30.04 in Calm   4.6 mph 60 % 0.00 in 394.0 W/m2 OVC
13:44 58.4 °F 44.6 °F 30.03 in ESE 1.8 mph 8.1 mph 60 % 0.00 in 434.0 W/m2 OVC
13:49 58.6 °F 44.8 °F 30.03 in South 4.4 mph 8.1 mph 60 % 0.00 in 341.0 W/m2 OVC
13:54 58.7 °F 45.3 °F 30.03 in SSE 0.6 mph 9.2 mph 61 % 0.00 in 297.0 W/m2 OVC
13:59 58.5 °F 44.7 °F 30.03 in SSE 0.1 mph 9.2 mph 60 % 0.00 in 292.0 W/m2 OVC
14:04 58.8 °F 45.8 °F 30.03 in Calm   5.8 mph 62 % 0.00 in 292.0 W/m2 OVC
14:09 58.6 °F 44.8 °F 30.03 in South 1.8 mph 4.6 mph 60 % 0.00 in 306.0 W/m2 OVC
14:15 58.3 °F 44.5 °F 30.03 in SE 2.1 mph 11.5 mph 60 % 0.00 in 304.0 W/m2 OVC
14:20 58.3 °F 44.9 °F 30.03 in South 5.0 mph 10.0 mph 61 % 0.00 in 392.0 W/m2 OVC
14:25 58.7 °F 45.3 °F 30.03 in South 2.0 mph 7.0 mph 61 % 0.00 in 483.0 W/m2 OVC
14:30 59.1 °F 45.7 °F 30.02 in South 0.7 mph 10.4 mph 61 % 0.00 in 877.0 W/m2 OVC
14:35 59.9 °F 45.5 °F 30.02 in South 3.0 mph 7.0 mph 59 % 0.00 in 874.0 W/m2 OVC
14:40 60.0 °F 44.7 °F 30.02 in South 1.0 mph 9.0 mph 57 % 0.00 in 923.0 W/m2 OVC
14:45 60.4 °F 46.0 °F 30.02 in South 2.6 mph 9.2 mph 59 % 0.00 in 580.0 W/m2 OVC
14:50 60.0 °F 45.6 °F 30.02 in SE 0.6 mph 9.2 mph 59 % 0.00 in 700.0 W/m2 OVC
14:55 60.0 °F 45.2 °F 30.01 in NE 1.2 mph 5.8 mph 58 % 0.00 in 629.0 W/m2 OVC
15:00 59.7 °F 45.3 °F 30.02 in SE 0.3 mph 5.8 mph 59 % 0.00 in 473.0 W/m2 OVC
15:05 59.3 °F 44.5 °F 30.01 in SSW 0.6 mph 6.9 mph 58 % 0.00 in 378.0 W/m2 BKN
15:10 59.3 °F 45.0 °F 30.01 in SSW 1.4 mph 6.9 mph 59 % 0.00 in 327.0 W/m2 BKN
15:15 59.6 °F 45.2 °F 30.01 in Calm   6.9 mph 59 % 0.00 in 527.0 W/m2 BKN
15:20 59.9 °F 44.6 °F 30.01 in SSE 3.1 mph 9.2 mph 57 % 0.00 in 434.0 W/m2 BKN
15:25 59.2 °F 44.9 °F 30.01 in South 0.2 mph 9.2 mph 59 % 0.00 in 362.0 W/m2 BKN
15:30 59.0 °F 44.7 °F 30.01 in South 2.1 mph 8.1 mph 59 % 0.00 in 417.0 W/m2 BKN
15:35 59.4 °F 45.9 °F 30.01 in Calm   8.1 mph 61 % 0.00 in 429.0 W/m2 BKN
15:40 59.6 °F 45.2 °F 30.01 in South 0.1 mph 6.9 mph 59 % 0.00 in 383.0 W/m2 BKN
15:45 59.6 °F 45.2 °F 30.01 in SE 1.2 mph 9.2 mph 59 % 0.00 in 432.0 W/m2 BKN
15:50 59.7 °F 44.9 °F 30.00 in Calm   9.2 mph 58 % 0.00 in 381.0 W/m2 BKN
15:55 59.8 °F 44.5 °F 30.01 in South 0.8 mph 4.6 mph 57 % 0.00 in 355.0 W/m2 BKN
16:00 59.6 °F 44.3 °F 30.00 in SSW 2.3 mph 8.1 mph 57 % 0.00 in 432.0 W/m2 BKN
16:05 59.6 °F 44.8 °F 30.00 in SSW 0.2 mph 8.1 mph 58 % 0.00 in 406.0 W/m2 BKN
16:10 59.4 °F 44.6 °F 30.00 in South 0.3 mph 8.1 mph 58 % 0.00 in 338.0 W/m2 BKN
16:15 59.3 °F 45.0 °F 30.00 in Calm   4.6 mph 59 % 0.00 in 417.0 W/m2 BKN
16:20 59.3 °F 44.5 °F 30.00 in South 1.6 mph 9.2 mph 58 % 0.00 in 374.0 W/m2 BKN
16:25 59.5 °F 45.6 °F 30.00 in Calm   9.2 mph 60 % 0.00 in 323.0 W/m2 BKN
16:30 59.4 °F 44.6 °F 30.00 in SSW 1.5 mph 5.8 mph 58 % 0.00 in 346.0 W/m2 BKN
16:35 59.4 °F 45.1 °F 30.00 in SSW 1.3 mph 8.1 mph 59 % 0.00 in 265.0 W/m2 BKN
16:40 59.5 °F 45.2 °F 30.00 in SSW 0.8 mph 10.4 mph 59 % 0.00 in 202.0 W/m2 BKN
16:45 59.1 °F 44.8 °F 30.00 in SSW 5.2 mph 10.4 mph 59 % 0.00 in 193.0 W/m2 BKN
16:50 59.1 °F 45.2 °F 30.00 in Calm   9.2 mph 60 % 0.00 in 183.0 W/m2 BKN
16:55 58.8 °F 44.9 °F 30.00 in SSW 1.4 mph 9.2 mph 60 % 0.00 in 181.0 W/m2 BKN
17:00 58.9 °F 45.0 °F 30.00 in Calm   6.9 mph 60 % 0.00 in 160.0 W/m2 BKN
17:05 58.9 °F 45.0 °F 30.00 in ESE 1.9 mph 6.9 mph 60 % 0.00 in 141.0 W/m2 OVC
17:10 58.7 °F 44.8 °F 30.00 in SE 0.2 mph 8.1 mph 60 % 0.00 in 128.0 W/m2 OVC
17:16 58.6 °F 44.8 °F 30.00 in SSE 0.1 mph 8.1 mph 60 % 0.00 in 123.0 W/m2 OVC
17:21 58.6 °F 44.8 °F 30.00 in South 0.1 mph 3.5 mph 60 % 0.00 in 114.0 W/m2 OVC
17:22 58.6 °F 44.8 °F 30.00 in Calm   3.5 mph 60 % 0.00 in 113.0 W/m2 OVC
17:27 58.5 °F 44.7 °F 30.00 in South 0.6 mph 3.5 mph 60 % 0.00 in 105.0 W/m2 OVC
17:32 58.9 °F 45.0 °F 30.00 in Calm   3.5 mph 60 % 0.00 in 118.0 W/m2 OVC
17:37 58.6 °F 44.8 °F 30.00 in Calm   3.5 mph 60 % 0.00 in 114.0 W/m2 OVC
17:42 58.5 °F 44.7 °F 30.00 in Calm   4.6 mph 60 % 0.00 in 107.0 W/m2 OVC
17:47 58.5 °F 44.7 °F 30.00 in South 0.3 mph 4.6 mph 60 % 0.00 in 98.0 W/m2 OVC
17:52 58.5 °F 45.1 °F 30.00 in South 0.6 mph 3.5 mph 61 % 0.00 in 84.0 W/m2 OVC
17:57 58.2 °F 44.4 °F 30.00 in SSW 0.8 mph 5.8 mph 60 % 0.00 in 81.0 W/m2 OVC
18:02 58.1 °F 44.3 °F 30.00 in Calm   5.8 mph 60 % 0.00 in 84.0 W/m2 OVC
18:07 58.0 °F 44.2 °F 30.00 in South 1.2 mph 5.8 mph 60 % 0.00 in 90.0 W/m2 OVC
18:12 58.3 °F 44.0 °F 30.00 in South 0.2 mph 10.4 mph 59 % 0.00 in 86.0 W/m2 OVC
18:17 58.1 °F 44.3 °F 30.00 in South 2.2 mph 10.4 mph 60 % 0.00 in 84.0 W/m2 OVC
18:22 58.0 °F 44.2 °F 30.00 in Calm   9.2 mph 60 % 0.00 in 81.0 W/m2 OVC
18:27 58.0 °F 44.2 °F 30.00 in South 0.9 mph 8.1 mph 60 % 0.00 in 70.0 W/m2 OVC
18:32 57.8 °F 44.0 °F 30.00 in Calm   6.9 mph 60 % 0.00 in 65.0 W/m2 OVC
18:37 58.0 °F 44.2 °F 30.00 in Calm   6.9 mph 60 % 0.00 in 60.0 W/m2 OVC
18:42 58.0 °F 44.6 °F 30.00 in Calm   4.6 mph 61 % 0.00 in 54.0 W/m2 OVC
18:47 58.2 °F 44.4 °F 30.00 in Calm   3.5 mph 60 % 0.00 in 49.0 W/m2 OVC
18:52 57.8 °F 44.0 °F 30.00 in Calm   3.5 mph 60 % 0.00 in 44.0 W/m2 OVC
18:57 57.8 °F 44.4 °F 30.00 in South 0.4 mph 3.5 mph 61 % 0.00 in 42.0 W/m2 OVC
19:02 57.8 °F 44.4 °F 30.00 in Calm   3.5 mph 61 % 0.00 in 40.0 W/m2 OVC
19:07 57.5 °F 44.1 °F 30.00 in South 0.1 mph 3.5 mph 61 % 0.00 in 39.0 W/m2 OVC
19:12 57.4 °F 44.5 °F 29.99 in Calm   4.6 mph 62 % 0.00 in 33.0 W/m2 OVC
19:17 57.3 °F 44.4 °F 29.99 in South 0.1 mph 4.6 mph 62 % 0.00 in 26.0 W/m2 OVC
19:22 57.2 °F 44.3 °F 29.99 in Calm   3.5 mph 62 % 0.00 in 23.0 W/m2 OVC
19:27 57.1 °F 44.6 °F 29.99 in Calm   3.5 mph 63 % 0.00 in 18.0 W/m2 OVC
19:33 57.1 °F 44.6 °F 29.99 in Calm   2.3 mph 63 % 0.00 in 16.0 W/m2 OVC
19:38 57.1 °F 44.6 °F 29.99 in SSW 0.2 mph 2.3 mph 63 % 0.00 in 12.0 W/m2 OVC
19:43 56.9 °F 44.4 °F 29.99 in ESE 0.3 mph 3.5 mph 63 % 0.00 in 11.0 W/m2 OVC
19:48 56.7 °F 44.2 °F 29.99 in SSE 0.1 mph 3.5 mph 63 % 0.00 in 7.0 W/m2 OVC
19:53 56.6 °F 44.1 °F 29.99 in Calm   4.6 mph 63 % 0.00 in 5.0 W/m2 OVC
19:58 56.6 °F 44.6 °F 29.99 in Calm   4.6 mph 64 % 0.00 in 0.0 W/m2 OVC
20:03 56.5 °F 44.5 °F 29.99 in Calm   1.2 mph 64 % 0.00 in 0.0 W/m2 BKN
20:08 56.5 °F 44.5 °F 29.99 in Calm     64 % 0.00 in 0.0 W/m2 BKN
20:13 56.4 °F 44.4 °F 29.99 in Calm   2.3 mph 64 % 0.00 in 0.0 W/m2 BKN
20:18 56.3 °F 44.7 °F 29.99 in Calm   2.3 mph 65 % 0.00 in 0.0 W/m2 BKN
20:23 56.3 °F 44.7 °F 29.99 in Calm     65 % 0.00 in 0.0 W/m2 BKN
20:28 56.1 °F 44.5 °F 29.99 in Calm     65 % 0.00 in 0.0 W/m2 BKN
20:33 56.0 °F 44.4 °F 29.99 in Calm   1.2 mph 65 % 0.00 in 0.0 W/m2 BKN
20:38 55.9 °F 44.3 °F 29.99 in Calm   1.2 mph 65 % 0.00 in 0.0 W/m2 BKN
20:43 55.8 °F 44.6 °F 29.98 in Calm   1.2 mph 66 % 0.00 in 0.0 W/m2 BKN
20:48 55.7 °F 44.5 °F 29.99 in Calm     66 % 0.00 in 0.0 W/m2 BKN
20:53 55.6 °F 44.4 °F 29.99 in Calm     66 % 0.00 in 0.0 W/m2 BKN
20:58 55.5 °F 44.3 °F 29.99 in Calm     66 % 0.00 in 0.0 W/m2 BKN
21:03 55.4 °F 44.2 °F 29.99 in Calm   1.2 mph 66 % 0.00 in 0.0 W/m2 SCT
21:08 55.4 °F 44.2 °F 29.99 in SE 0.9 mph 3.5 mph 66 % 0.00 in 0.0 W/m2 SCT
21:10 55.3 °F 44.1 °F 29.99 in SSW 0.2 mph 8.1 mph 66 % 0.00 in 0.0 W/m2 SCT
21:15 55.2 °F 44.0 °F 29.99 in Calm   8.1 mph 66 % 0.00 in 0.0 W/m2 SCT
21:20 55.1 °F 44.3 °F 29.99 in SE 0.2 mph 3.5 mph 67 % 0.00 in 0.0 W/m2 SCT
21:25 55.0 °F 44.2 °F 29.99 in Calm   3.5 mph 67 % 0.00 in 0.0 W/m2 SCT
21:30 54.9 °F 44.1 °F 30.00 in Calm   2.3 mph 67 % 0.00 in 0.0 W/m2 SCT
21:35 54.6 °F 43.9 °F 30.00 in ESE 0.4 mph 3.5 mph 67 % 0.00 in 0.0 W/m2 SCT
21:40 54.4 °F 44.1 °F 30.00 in East 0.1 mph 5.8 mph 68 % 0.00 in 0.0 W/m2 SCT
21:45 54.2 °F 43.9 °F 30.00 in East 0.4 mph 5.8 mph 68 % 0.00 in 0.0 W/m2 SCT
21:50 54.1 °F 44.2 °F 30.01 in Calm   3.5 mph 69 % 0.00 in 0.0 W/m2 SCT
21:55 54.0 °F 44.4 °F 30.01 in Calm   3.5 mph 70 % 0.00 in 0.0 W/m2 SCT
22:00 53.7 °F 44.1 °F 30.01 in Calm   6.9 mph 70 % 0.00 in 0.0 W/m2 SCT
22:05 53.6 °F 43.7 °F 30.00 in Calm   6.9 mph 69 % 0.00 in 0.0 W/m2 OVC
22:10 53.4 °F 43.5 °F 30.00 in Calm   3.5 mph 69 % 0.00 in 0.0 W/m2 OVC
22:15 53.3 °F 43.4 °F 30.00 in Calm   3.5 mph 69 % 0.00 in 0.0 W/m2 OVC
22:20 53.2 °F 43.7 °F 30.00 in Calm   3.5 mph 70 % 0.00 in 0.0 W/m2 OVC
22:25 53.0 °F 43.5 °F 30.00 in Calm   1.2 mph 70 % 0.00 in 0.0 W/m2 OVC
22:30 52.7 °F 43.2 °F 30.00 in Calm   4.6 mph 70 % 0.00 in 0.0 W/m2 OVC
22:31 52.7 °F 43.2 °F 30.00 in Calm   4.6 mph 70 % 0.00 in 0.0 W/m2 OVC
22:36 52.6 °F 43.1 °F 30.00 in Calm   4.6 mph 70 % 0.00 in 0.0 W/m2 OVC
22:41 52.6 °F 43.1 °F 30.00 in Calm     70 % 0.00 in 0.0 W/m2 OVC
22:46 52.5 °F 43.0 °F 30.00 in Calm     70 % 0.00 in 0.0 W/m2 OVC
22:51 52.5 °F 43.4 °F 30.00 in Calm     71 % 0.00 in 0.0 W/m2 OVC
22:56 52.6 °F 43.5 °F 30.00 in Calm     71 % 0.00 in 0.0 W/m2 OVC
23:01 52.5 °F 43.4 °F 30.00 in Calm     71 % 0.00 in 0.0 W/m2 -RA
23:06 52.4 °F 43.3 °F 30.00 in Calm     71 % 0.00 in 0.0 W/m2 -RA
23:11 52.5 °F 43.7 °F 30.00 in Calm     72 % 0.00 in 0.0 W/m2 -RA
23:16 52.2 °F 43.4 °F 30.00 in Calm     72 % 0.00 in 0.0 W/m2 -RA
23:21 51.9 °F 43.9 °F 30.00 in Calm     74 % 0.00 in 0.0 W/m2 -RA
23:26 51.2 °F 43.9 °F 30.00 in Calm     76 % 0.01 in 0.0 W/m2 -RA
23:31 51.1 °F 44.5 °F 30.00 in Calm     78 % 0.01 in 0.0 W/m2 -RA
23:36 51.0 °F 44.7 °F 29.99 in Calm     79 % 0.01 in 0.0 W/m2 -RA
23:41 50.7 °F 44.4 °F 29.99 in Calm     79 % 0.01 in 0.0 W/m2 -RA
23:46 50.7 °F 44.8 °F 29.99 in Calm     80 % 0.01 in 0.0 W/m2 -RA
23:51 50.5 °F 44.6 °F 29.99 in Calm     80 % 0.01 in 0.0 W/m2 -RA
23:56 50.2 °F 44.6 °F 29.99 in Calm     81 % 0.01 in 0.0 W/m2 -RA
Air Products Campus Weather
Compliments of Weather Underground - 3.5 mb